地図

経路データ

SID SEASON NUMBER BASIN SUBBASIN NAME ISO_TIME NATURE LAT LON WMO_WIND WMO_PRES WMO_AGENCY TRACK_TYPE DIST2LAND LANDFALL IFLAG USA_AGENCY USA_ATCF_ID USA_LAT USA_LON USA_RECORD USA_STATUS USA_WIND USA_PRES USA_SSHS USA_R34_NE USA_R34_SE USA_R34_SW USA_R34_NW USA_R50_NE USA_R50_SE USA_R50_SW USA_R50_NW USA_R64_NE USA_R64_SE USA_R64_SW USA_R64_NW USA_POCI USA_ROCI USA_RMW USA_EYE TOKYO_LAT TOKYO_LON TOKYO_GRADE TOKYO_WIND TOKYO_PRES TOKYO_R50_DIR TOKYO_R50_LONG TOKYO_R50_SHORT TOKYO_R30_DIR TOKYO_R30_LONG TOKYO_R30_SHORT TOKYO_LAND CMA_LAT CMA_LON CMA_CAT CMA_WIND CMA_PRES HKO_LAT HKO_LON HKO_CAT HKO_WIND HKO_PRES NEWDELHI_LAT NEWDELHI_LON NEWDELHI_GRADE NEWDELHI_WIND NEWDELHI_PRES NEWDELHI_CI NEWDELHI_DP NEWDELHI_POCI REUNION_LAT REUNION_LON REUNION_TYPE REUNION_WIND REUNION_PRES REUNION_TNUM REUNION_CI REUNION_RMW REUNION_R34_NE REUNION_R34_SE REUNION_R34_SW REUNION_R34_NW REUNION_R50_NE REUNION_R50_SE REUNION_R50_SW REUNION_R50_NW REUNION_R64_NE REUNION_R64_SE REUNION_R64_SW REUNION_R64_NW BOM_LAT BOM_LON BOM_TYPE BOM_WIND BOM_PRES BOM_TNUM BOM_CI BOM_RMW BOM_R34_NE BOM_R34_SE BOM_R34_SW BOM_R34_NW BOM_R50_NE BOM_R50_SE BOM_R50_SW BOM_R50_NW BOM_R64_NE BOM_R64_SE BOM_R64_SW BOM_R64_NW BOM_ROCI BOM_POCI BOM_EYE BOM_POS_METHOD BOM_PRES_METHOD NADI_LAT NADI_LON NADI_CAT NADI_WIND NADI_PRES WELLINGTON_LAT WELLINGTON_LON WELLINGTON_WIND WELLINGTON_PRES DS824_LAT DS824_LON DS824_STAGE DS824_WIND DS824_PRES TD9636_LAT TD9636_LON TD9636_STAGE TD9636_WIND TD9636_PRES TD9635_LAT TD9635_LON TD9635_WIND TD9635_PRES TD9635_ROCI NEUMANN_LAT NEUMANN_LON NEUMANN_CLASS NEUMANN_WIND NEUMANN_PRES MLC_LAT MLC_LON MLC_CLASS MLC_WIND MLC_PRES USA_GUST BOM_GUST BOM_GUST_PER REUNION_GUST REUNION_GUST_PER USA_SEAHGT USA_SEARAD_NE USA_SEARAD_SE USA_SEARAD_SW USA_SEARAD_NW STORM_SPEED STORM_DIR
1968186N13256 1968 38 EP MM BONNY 1968-07-04 00:00:00 TS 13.0000 -103.700 45 hurdat_epa main 556 546 O________OO___ hurdat_epa EP021968 13.0000 -103.700 TS 45 0 13.0000 -103.700 TC 45 13.0000 -103.700 1 15 302
1968186N13256 1968 38 EP MM BONNY 1968-07-04 03:00:00 TS 13.3979 -104.351 main 549 524 P________PP___ EP021968 13.3977 -104.340 TS 45 0 13.3977 -104.340 TC 45 13.3987 -104.397 1 15 302
1968186N13256 1968 38 EP MM BONNY 1968-07-04 06:00:00 TS 13.7994 -105.015 45 hurdat_epa main 528 510 O________OP___ hurdat_epa EP021968 13.8000 -105.000 TS 45 0 13.8000 -105.000 TC 45 13.7971 -105.076 1 15 302
1968186N13256 1968 38 EP MM BONNY 1968-07-04 09:00:00 TS 14.2054 -105.687 main 515 504 P________PP___ EP021968 14.2075 -105.680 TS 45 0 14.2075 -105.680 TC 45 14.1969 -105.717 1 15 303
1968186N13256 1968 38 EP MM BONNY 1968-07-04 12:00:00 TS 14.6000 -106.300 45 hurdat_epa main 510 505 O________OO___ hurdat_epa EP021968 14.6000 -106.300 TS 45 0 14.6000 -106.300 TC 45 14.6000 -106.300 2 13 306
1968186N13256 1968 38 EP MM BONNY 1968-07-04 15:00:00 TS 14.9666 -106.787 main 509 500 P________PP___ EP021968 14.9572 -106.780 TS 45 0 14.9572 -106.780 TC 45 15.0041 -106.812 2 11 309
1968186N13256 1968 38 EP MM BONNY 1968-07-04 18:00:00 TS 15.3178 -107.214 45 hurdat_epa main 505 491 O________OP___ hurdat_epa EP021968 15.3000 -107.200 TS 45 0 15.3000 -107.200 TC 45 15.3888 -107.268 2 11 311
1968186N13256 1968 38 EP MM BONNY 1968-07-04 21:00:00 TS 15.6958 -107.658 main 498 489 P________PP___ EP021968 15.6874 -107.650 TS 45 0 15.6874 -107.650 TC 45 15.7292 -107.690 2 11 309
1968186N13256 1968 38 EP MM BONNY 1968-07-05 00:00:00 TS 16.0000 -108.100 45 hurdat_epa main 500 500 O________OO___ hurdat_epa EP021968 16.0000 -108.100 TS 45 0 16.0000 -108.100 TC 45 16.0000 -108.100 2 10 297
1968186N13256 1968 38 EP MM BONNY 1968-07-05 03:00:00 TS 16.1386 -108.551 main 530 522 P________PP___ EP021968 16.1374 -108.558 TS 45 0 16.1374 -108.558 TC 45 16.1430 -108.525 2 9 283
1968186N13256 1968 38 EP MM BONNY 1968-07-05 06:00:00 TS 16.2044 -108.989 45 hurdat_epa main 553 553 O________OP___ hurdat_epa EP021968 16.2000 -109.000 TS 45 0 16.2000 -109.000 TC 45 16.2219 -108.944 2 8 280
1968186N13256 1968 38 EP MM BONNY 1968-07-05 09:00:00 TS 16.2798 -109.387 main 576 576 P________PP___ EP021968 16.2773 -109.393 TS 45 0 16.2773 -109.393 TC 45 16.2898 -109.366 2 8 284
1968186N13256 1968 38 EP MM BONNY 1968-07-05 12:00:00 TS 16.4000 -109.800 45 hurdat_epa main 602 602 O________OO___ hurdat_epa EP021968 16.4000 -109.800 TS 45 0 16.4000 -109.800 TC 45 16.4000 -109.800 2 9 291
1968186N13256 1968 38 EP MM BONNY 1968-07-05 15:00:00 TS 16.6203 -110.300 main 631 631 P________PP___ EP021968 16.6200 -110.292 TS 45 0 16.6200 -110.292 TC 45 16.6213 -110.329 2 11 297
1968186N13256 1968 38 EP MM BONNY 1968-07-05 18:00:00 TS 16.8982 -110.812 45 hurdat_epa main 657 651 O________OP___ hurdat_epa EP021968 16.9000 -110.800 TS 45 0 16.9000 -110.800 TC 45 16.8910 -110.861 2 11 300
1968186N13256 1968 38 EP MM BONNY 1968-07-05 21:00:00 TS 17.1921 -111.321 main 651 629 P________PP___ EP021968 17.1926 -111.317 TS 45 0 17.1926 -111.317 TC 45 17.1901 -111.338 2 10 305
1968186N13256 1968 38 EP MM BONNY 1968-07-06 00:00:00 TS 17.5000 -111.700 45 hurdat_epa main 629 600 O________OO___ hurdat_epa EP021968 17.5000 -111.700 TS 45 0 17.5000 -111.700 TC 45 17.5000 -111.700 2 8 322
1968186N13256 1968 38 EP MM BONNY 1968-07-06 03:00:00 TS 17.7982 -111.809 main 600 568 P________PP___ EP021968 17.7998 -111.810 TS 45 0 17.7998 -111.810 TC 45 17.7917 -111.805 2 6 351
1968186N13256 1968 38 EP MM BONNY 1968-07-06 06:00:00 TS 18.0982 -111.801 45 hurdat_epa main 568 536 O________OP___ hurdat_epa EP021968 18.1000 -111.800 TS 45 0 18.1000 -111.800 TC 45 18.0910 -111.803 2 6 0
1968186N13256 1968 38 EP MM BONNY 1968-07-06 09:00:00 TS 18.3988 -111.792 main 536 509 P________PP___ EP021968 18.3998 -111.790 TS 45 0 18.3998 -111.790 TC 45 18.3948 -111.799 2 6 351
1968186N13256 1968 38 EP MM BONNY 1968-07-06 12:00:00 TS 18.7000 -111.900 45 hurdat_epa main 509 492 O________OO___ hurdat_epa EP021968 18.7000 -111.900 TS 45 0 18.7000 -111.900 TC 45 18.7000 -111.900 2 8 323
1968186N13256 1968 38 EP MM BONNY 1968-07-06 15:00:00 TS 19.0019 -112.280 main 497 488 P________PP___ EP021968 19.0001 -112.282 TS 45 0 19.0001 -112.282 TC 45 19.0090 -112.268 2 10 306
1968186N13256 1968 38 EP MM BONNY 1968-07-06 18:00:00 TS 19.3033 -112.790 45 hurdat_epa main 496 493 O________OP___ hurdat_epa EP021968 19.3000 -112.800 TS 45 0 19.3000 -112.800 TC 45 19.3163 -112.751 2 11 302
1968186N13256 1968 38 EP MM BONNY 1968-07-06 21:00:00 TS 19.6091 -113.309 main 503 501 P________PP___ EP021968 19.6076 -113.315 TS 45 0 19.6076 -113.315 TC 45 19.6153 -113.284 2 11 302
1968186N13256 1968 38 EP MM BONNY 1968-07-07 00:00:00 TS 19.9000 -113.800 45 hurdat_epa main 516 516 O________OO___ hurdat_epa EP021968 19.9000 -113.800 TS 45 0 19.9000 -113.800 TC 45 19.9000 -113.800 2 10 304
1968186N13256 1968 38 EP MM BONNY 1968-07-07 03:00:00 TS 20.1634 -114.175 main 528 528 P________PP___ EP021968 20.1572 -114.165 TS 45 0 20.1572 -114.165 TC 45 20.1883 -114.212 2 8 307
1968186N13256 1968 38 EP MM BONNY 1968-07-07 06:00:00 TS 20.4119 -114.519 45 hurdat_epa main 535 527 O________OP___ hurdat_epa EP021968 20.4000 -114.500 TS 45 0 20.4000 -114.500 TC 45 20.4594 -114.595 2 9 307
1968186N13256 1968 38 EP MM BONNY 1968-07-07 09:00:00 TS 20.6782 -114.911 main 530 527 P________PP___ EP021968 20.6725 -114.900 TS 45 0 20.6725 -114.900 TC 45 20.7009 -114.956 2 9 304
1968186N13256 1968 38 EP MM BONNY 1968-07-07 12:00:00 TS 20.9000 -115.300 45 hurdat_epa main 536 534 O________OO___ hurdat_epa EP021968 20.9000 -115.300 TS 45 0 20.9000 -115.300 TC 45 20.9000 -115.300 2 8 296
1968186N13256 1968 38 EP MM BONNY 1968-07-07 15:00:00 TS 21.0241 -115.661 main 554 552 P________PP___ EP021968 21.0224 -115.665 TS 42 0 21.0224 -115.665 TC 42 21.0306 -115.644 2 7 287
1968186N13256 1968 38 EP MM BONNY 1968-07-07 18:00:00 TS 21.1044 -115.995 40 hurdat_epa main 566 566 O________OP___ hurdat_epa EP021968 21.1000 -116.000 TS 40 0 21.1000 -116.000 TC 40 21.1221 -115.974 2 6 286
1968186N13256 1968 38 EP MM BONNY 1968-07-07 21:00:00 TS 21.1944 -116.304 main 581 581 P________PP___ EP021968 21.1924 -116.308 TS 32 -1 21.1924 -116.308 TC 32 21.2026 -116.291 2 6 289
1968186N13256 1968 38 EP MM BONNY 1968-07-08 00:00:00 TS 21.3000 -116.600 25 hurdat_epa main 596 596 O________OO___ hurdat_epa EP021968 21.3000 -116.600 TD 25 -1 21.3000 -116.600 TC 25 21.3000 -116.600 6 6 294
1968186N13256 1968 38 EP MM BONNY 1968-07-08 03:00:00 TS 21.4386 -116.901 main 612 605 P________PP___ EP021968 21.4349 -116.900 TD 25 -1 21.4349 -116.900 TC 25 21.4532 -116.907 6 6 299
1968186N13256 1968 38 EP MM BONNY 1968-07-08 06:00:00 TS 21.6054 -117.202 25 hurdat_epa main 623 623 O________OP___ hurdat_epa EP021968 21.6000 -117.200 TD 25 -1 21.6000 -117.200 TC 25 21.6272 -117.208 6 7 303
1968186N13256 1968 38 EP MM BONNY 1968-07-08 09:00:00 TS 21.8025 -117.501 main 636 636 P________PP___ EP021968 21.7999 -117.500 TD 25 -1 21.7999 -117.500 TC 25 21.8126 -117.504 6 7 305
1968186N13256 1968 38 EP MM BONNY 1968-07-08 12:00:00 TS 22.0000 -117.800 25 hurdat_epa main 651 651 O________OO___ hurdat_epa EP021968 22.0000 -117.800 TD 25 -1 22.0000 -117.800 TC 25 22.0000 -117.800 6 7 302
1968186N13256 1968 38 EP MM BONNY 1968-07-08 15:00:00 TS 22.1541 -118.101 main 667 667 P________PP___ EP021968 22.1499 -118.100 TD 25 -1 22.1499 -118.100 TC 25 22.1708 -118.104 6 6 299
1968186N13256 1968 38 EP MM BONNY 1968-07-08 18:00:00 TS 22.3085 -118.402 25 hurdat_epa main 680 674 O________OP___ hurdat_epa EP021968 22.3000 -118.400 TD 25 -1 22.3000 -118.400 TC 25 22.3424 -118.408 6 7 302
1968186N13256 1968 38 EP MM BONNY 1968-07-08 21:00:00 TS 22.4975 -118.702 main 680 676 P________PP___ EP021968 22.4924 -118.700 TD 25 -1 22.4924 -118.700 TC 25 22.5177 -118.707 6 7 305
1968186N13256 1968 38 EP MM BONNY 1968-07-09 00:00:00 TS 22.7000 -119.000 25 hurdat_epa main 683 681 O________OO___ hurdat_epa EP021968 22.7000 -119.000 TD 25 -1 22.7000 -119.000 TC 25 22.7000 -119.000 6 7 306
1968186N13256 1968 38 EP MM BONNY 1968-07-09 03:00:00 TS 22.8983 -119.303 main 688 684 P________PP___ EP021968 22.9000 -119.308 TD 25 -1 22.9000 -119.308 TC 25 22.8914 -119.283 6 7 306
1968186N13256 1968 38 EP MM BONNY 1968-07-09 06:00:00 TS 23.0981 -119.592 25 hurdat_epa main 690 687 O________OP___ hurdat_epa EP021968 23.1000 -119.600 TD 25 -1 23.1000 -119.600 TC 25 23.0903 -119.559 6 6 308
1968186N13256 1968 38 EP MM BONNY 1968-07-09 09:00:00 TS 23.2988 -119.854 main 694 686 P________PP___ EP021968 23.3000 -119.860 TD 25 -1 23.3000 -119.860 TC 25 23.2941 -119.831 6 6 311
1968186N13256 1968 38 EP MM BONNY 1968-07-09 12:00:00 TS 23.5000 -120.100 25 hurdat_epa main 693 O________OO___ hurdat_epa EP021968 23.5000 -120.100 TD 25 -1 23.5000 -120.100 TC 25 23.5000 -120.100 6 6 311

IBTrACS Databaseについて

本データベースは、米国NOAAが公開する1842年以降の世界の熱帯低気圧のベストトラックデータアーカイブInternational Best Track Archive for Climate Stewardship (IBTrACS)を、ウェブで閲覧しやすい形式に変換したものです。

最終更新日:2021-11-26